createdAt,value
2022-08-28T00:00:37.118Z,3.30
2022-08-28T00:03:05.767Z,3.58
2022-08-28T00:05:33.897Z,3.58
2022-08-28T00:08:00.536Z,3.47
2022-08-28T00:10:28.528Z,3.40
2022-08-28T00:12:56.396Z,3.25
2022-08-28T00:15:29.229Z,3.35
2022-08-28T00:18:16.484Z,3.38
2022-08-28T00:21:04.038Z,3.47
2022-08-28T00:23:50.896Z,3.00
2022-08-28T00:26:56.265Z,3.58
2022-08-28T00:29:43.761Z,3.15
2022-08-28T00:32:30.651Z,3.10
2022-08-28T00:34:57.784Z,3.13
2022-08-28T00:37:24.776Z,3.55
2022-08-28T00:39:51.565Z,3.17
2022-08-28T00:42:18.654Z,3.08
2022-08-28T00:44:45.339Z,3.30
2022-08-28T00:47:12.533Z,3.00
2022-08-28T00:49:47.962Z,3.13
2022-08-28T00:52:16.027Z,3.25
2022-08-28T00:54:59.646Z,3.63
2022-08-28T00:57:38.936Z,3.35
2022-08-28T01:00:09.097Z,3.30
2022-08-28T01:02:35.789Z,2.97
2022-08-28T01:05:03.969Z,3.33
2022-08-28T01:07:30.499Z,3.53
2022-08-28T01:09:57.449Z,3.70
2022-08-28T01:12:29.796Z,3.75
2022-08-28T01:15:00.526Z,3.50
2022-08-28T01:20:01.072Z,3.42
2022-08-28T01:22:40.384Z,3.15
2022-08-28T01:25:14.727Z,3.13
2022-08-28T01:27:41.919Z,3.42
2022-08-28T01:30:12.081Z,2.88
2022-08-28T01:35:11.896Z,3.38
2022-08-28T01:37:38.831Z,3.20
2022-08-28T01:40:07.654Z,3.30
2022-08-28T01:42:43.012Z,3.00
2022-08-28T01:45:13.570Z,3.15
2022-08-28T01:47:42.433Z,3.72
2022-08-28T01:50:12.211Z,3.33
2022-08-28T01:52:39.480Z,4.18
2022-08-28T01:55:06.956Z,3.50
2022-08-28T01:57:33.580Z,3.50
2022-08-28T02:00:00.160Z,3.22
2022-08-28T02:02:26.724Z,3.38
2022-08-28T02:04:54.138Z,3.53
2022-08-28T02:07:20.841Z,3.40
2022-08-28T02:09:48.023Z,3.33
2022-08-28T02:12:14.520Z,3.42
2022-08-28T02:14:41.453Z,3.60
2022-08-28T02:17:08.346Z,3.78
2022-08-28T02:19:34.850Z,3.42
2022-08-28T02:22:01.692Z,3.03
2022-08-28T02:24:28.273Z,2.80
2022-08-28T02:26:55.106Z,2.92
2022-08-28T02:29:21.915Z,3.30
2022-08-28T02:31:48.573Z,3.30
2022-08-28T02:34:15.752Z,3.00
2022-08-28T02:36:42.556Z,3.20
2022-08-28T02:39:09.717Z,3.63
2022-08-28T02:41:36.882Z,3.00
2022-08-28T02:44:05.013Z,2.67
2022-08-28T02:46:31.699Z,3.38
2022-08-28T02:48:58.230Z,2.72
2022-08-28T02:51:25.761Z,3.40
2022-08-28T02:53:52.635Z,3.20
2022-08-28T02:56:19.672Z,3.63
2022-08-28T02:58:46.433Z,2.95
2022-08-28T03:01:13.376Z,3.05
2022-08-28T03:03:41.298Z,2.85
2022-08-28T03:06:10.362Z,2.78
2022-08-28T03:08:37.430Z,2.88
2022-08-28T03:11:04.188Z,3.08
2022-08-28T03:13:31.680Z,3.42
2022-08-28T03:15:58.784Z,3.22
2022-08-28T03:18:27.076Z,3.55
2022-08-28T03:20:54.124Z,3.30
2022-08-28T03:23:26.534Z,3.83
2022-08-28T03:25:55.783Z,3.63
2022-08-28T03:28:22.676Z,3.45
2022-08-28T03:30:50.574Z,2.95
2022-08-28T03:33:17.614Z,3.10
2022-08-28T03:35:44.663Z,3.50
2022-08-28T03:38:11.564Z,3.60
2022-08-28T03:40:40.544Z,3.20
2022-08-28T03:43:07.142Z,3.47
2022-08-28T03:45:34.107Z,3.38
2022-08-28T03:48:01.772Z,3.40
2022-08-28T03:50:28.507Z,3.63
2022-08-28T03:52:56.403Z,3.30
2022-08-28T03:55:22.946Z,3.42
2022-08-28T03:57:50.814Z,3.55
2022-08-28T04:00:19.064Z,2.88
2022-08-28T04:02:46.144Z,3.38
2022-08-28T04:05:14.228Z,3.10
2022-08-28T04:07:40.765Z,2.80
2022-08-28T04:10:08.319Z,3.10
2022-08-28T04:12:35.932Z,2.72
2022-08-28T04:15:07.071Z,3.20
2022-08-28T04:17:34.292Z,2.90
2022-08-28T04:20:01.166Z,2.92
2022-08-28T04:22:29.649Z,2.90
2022-08-28T04:24:56.342Z,3.17
2022-08-28T04:27:22.794Z,3.10
2022-08-28T04:29:49.850Z,3.20
2022-08-28T04:32:16.753Z,3.35
2022-08-28T04:34:43.418Z,3.25
2022-08-28T04:37:10.844Z,3.10
2022-08-28T04:39:37.601Z,3.00
2022-08-28T04:42:04.775Z,3.03
2022-08-28T04:44:32.147Z,3.20
2022-08-28T04:46:58.950Z,3.10
2022-08-28T04:49:26.069Z,3.15
2022-08-28T04:51:52.729Z,3.05
2022-08-28T04:54:20.460Z,3.38
2022-08-28T04:56:47.057Z,2.92
2022-08-28T04:59:13.996Z,2.50
2022-08-28T05:01:42.818Z,2.88
2022-08-28T05:04:11.811Z,2.65
2022-08-28T05:06:46.451Z,3.05
2022-08-28T05:09:20.520Z,2.97
2022-08-28T05:11:49.433Z,2.70
2022-08-28T05:14:16.515Z,3.13
2022-08-28T05:16:49.753Z,2.72
2022-08-28T05:19:18.508Z,2.90
2022-08-28T05:21:45.738Z,2.72
2022-08-28T05:24:14.055Z,3.40
2022-08-28T05:26:41.018Z,3.30
2022-08-28T05:29:10.152Z,2.45
2022-08-28T05:31:38.993Z,3.88
2022-08-28T05:34:08.482Z,3.17
2022-08-28T05:36:37.441Z,2.97
2022-08-28T05:39:07.057Z,2.90
2022-08-28T05:41:34.494Z,3.10
2022-08-28T05:44:06.618Z,2.72
2022-08-28T05:46:35.857Z,2.40
2022-08-28T05:49:04.780Z,2.92
2022-08-28T05:51:35.408Z,3.30
2022-08-28T05:54:03.617Z,2.88
2022-08-28T05:56:34.857Z,2.80
2022-08-28T05:59:03.188Z,2.60
2022-08-28T06:01:32.640Z,2.50
2022-08-28T06:04:03.109Z,2.70
2022-08-28T06:08:59.459Z,2.50
2022-08-28T06:11:30.419Z,3.10
2022-08-28T06:14:01.726Z,3.08
2022-08-28T06:16:32.774Z,2.63
2022-08-28T06:19:00.334Z,3.40
2022-08-28T06:21:29.441Z,3.00
2022-08-28T06:23:56.431Z,3.00
2022-08-28T06:26:23.717Z,2.92
2022-08-28T06:28:51.169Z,2.80
2022-08-28T06:31:24.260Z,2.83
2022-08-28T06:33:56.255Z,2.88
2022-08-28T06:36:25.211Z,2.92
2022-08-28T06:38:52.000Z,3.22
2022-08-28T06:41:19.555Z,3.10
2022-08-28T06:43:46.391Z,3.22
2022-08-28T06:46:13.056Z,2.88
2022-08-28T06:48:40.045Z,3.15
2022-08-28T06:51:09.455Z,2.75
2022-08-28T06:53:38.195Z,2.80
2022-08-28T06:56:11.136Z,3.10
2022-08-28T06:58:43.304Z,3.28
2022-08-28T07:01:24.482Z,2.53
2022-08-28T07:03:53.705Z,2.58
2022-08-28T07:06:22.650Z,2.60
2022-08-28T07:08:50.940Z,3.28
2022-08-28T07:11:25.999Z,3.08
2022-08-28T07:13:54.313Z,2.55
2022-08-28T07:16:24.138Z,2.88
2022-08-28T07:18:51.270Z,3.72
2022-08-28T07:21:17.797Z,3.35
2022-08-28T07:23:46.001Z,3.05
2022-08-28T07:26:17.548Z,3.00
2022-08-28T07:28:45.382Z,3.20
2022-08-28T07:31:16.084Z,2.97
2022-08-28T07:36:16.025Z,3.38
2022-08-28T07:38:58.871Z,3.92
2022-08-28T07:41:31.630Z,3.00
2022-08-28T07:44:34.547Z,2.90
2022-08-28T07:47:06.231Z,3.40
2022-08-28T07:49:35.797Z,3.38
2022-08-28T07:52:02.947Z,2.97
2022-08-28T07:54:29.474Z,2.75
2022-08-28T07:56:56.341Z,2.50
2022-08-28T07:59:22.851Z,3.00
2022-08-28T08:01:52.114Z,2.53
2022-08-28T08:04:20.701Z,2.72
2022-08-28T08:06:47.273Z,2.58
2022-08-28T08:09:16.471Z,2.85
2022-08-28T08:11:44.158Z,2.47
2022-08-28T08:14:12.275Z,3.20
2022-08-28T08:16:42.227Z,3.22
2022-08-28T08:19:14.084Z,2.80
2022-08-28T08:21:46.644Z,3.13
2022-08-28T08:24:20.756Z,3.03
2022-08-28T08:26:58.980Z,3.13
2022-08-28T08:29:35.902Z,2.85
2022-08-28T08:32:07.745Z,2.50
2022-08-28T08:34:38.785Z,2.47
2022-08-28T08:37:06.330Z,2.92
2022-08-28T08:39:36.881Z,2.65
2022-08-28T08:42:07.389Z,2.75
2022-08-28T08:47:43.498Z,3.00
2022-08-28T08:50:22.561Z,2.70
2022-08-28T08:53:12.516Z,3.08
2022-08-28T08:55:46.672Z,2.55
2022-08-28T08:58:35.026Z,2.08
2022-08-28T09:01:14.613Z,2.47
2022-08-28T09:03:55.882Z,2.20
2022-08-28T09:06:44.524Z,2.60
2022-08-28T09:09:18.411Z,2.63
2022-08-28T09:11:58.334Z,2.80
2022-08-28T09:14:37.455Z,2.30
2022-08-28T09:17:07.025Z,2.63
2022-08-28T09:19:33.773Z,2.80
2022-08-28T09:22:02.241Z,3.47
2022-08-28T09:24:38.016Z,2.85
2022-08-28T09:27:25.407Z,3.70
2022-08-28T09:29:59.128Z,3.30
2022-08-28T09:32:35.443Z,2.65
2022-08-28T09:35:25.340Z,3.33
2022-08-28T09:37:52.118Z,2.88
2022-08-28T09:40:49.585Z,3.10
2022-08-28T09:43:27.483Z,2.90
2022-08-28T09:46:17.399Z,2.92
2022-08-28T09:51:21.209Z,3.28
2022-08-28T09:53:50.676Z,2.70
2022-08-28T09:56:36.746Z,2.85
2022-08-28T09:59:07.859Z,2.45
2022-08-28T10:01:51.734Z,2.60
2022-08-28T10:04:33.024Z,2.60
2022-08-28T10:07:18.968Z,2.55
2022-08-28T10:10:20.197Z,3.20
2022-08-28T10:13:10.099Z,2.35
2022-08-28T10:15:55.771Z,3.17
2022-08-28T10:18:31.787Z,2.58
2022-08-28T10:21:09.552Z,2.47
2022-08-28T10:24:13.781Z,2.53
2022-08-28T10:26:47.241Z,2.58
2022-08-28T10:29:35.041Z,2.50
2022-08-28T10:32:34.744Z,2.70
2022-08-28T10:35:13.633Z,2.22
2022-08-28T10:37:55.565Z,2.30
2022-08-28T10:40:32.690Z,2.42
2022-08-28T10:43:08.692Z,2.88
2022-08-28T10:45:35.879Z,2.95
2022-08-28T10:48:17.513Z,2.63
2022-08-28T10:50:52.592Z,2.65
2022-08-28T10:53:50.714Z,2.80
2022-08-28T10:56:40.589Z,2.65
2022-08-28T10:59:07.082Z,2.90
2022-08-28T11:01:38.484Z,2.40
2022-08-28T11:04:24.694Z,2.78
2022-08-28T11:07:15.378Z,2.30
2022-08-28T11:09:46.051Z,2.28
2022-08-28T11:12:20.015Z,2.42
2022-08-28T11:14:51.032Z,2.30
2022-08-28T11:17:27.667Z,2.45
2022-08-28T11:20:07.084Z,2.10
2022-08-28T11:22:39.796Z,2.55
2022-08-28T11:25:13.689Z,2.42
2022-08-28T11:28:00.463Z,2.17
2022-08-28T11:30:33.024Z,2.17
2022-08-28T11:33:02.635Z,2.28
2022-08-28T11:35:29.362Z,2.40
2022-08-28T11:37:58.003Z,2.10
2022-08-28T11:40:32.077Z,2.55
2022-08-28T11:43:14.579Z,1.80
2022-08-28T11:45:45.704Z,2.30
2022-08-28T11:48:22.771Z,1.88
2022-08-28T11:50:57.220Z,2.38
2022-08-28T11:53:26.707Z,2.33
2022-08-28T11:56:31.387Z,2.30
2022-08-28T11:59:24.731Z,2.22
2022-08-28T12:01:52.104Z,2.10
2022-08-28T12:04:22.162Z,2.80
2022-08-28T12:07:12.007Z,2.08
2022-08-28T12:09:45.267Z,1.60
2022-08-28T12:12:22.244Z,2.20
2022-08-28T12:14:54.942Z,2.03
2022-08-28T12:17:21.830Z,2.20
2022-08-28T12:19:52.465Z,2.10
2022-08-28T12:22:26.480Z,2.40
2022-08-28T12:25:03.199Z,2.25
2022-08-28T12:27:31.727Z,2.92
2022-08-28T12:30:00.742Z,2.70
2022-08-28T12:32:46.304Z,2.47
2022-08-28T12:35:30.167Z,2.47
2022-08-28T12:37:57.594Z,2.33
2022-08-28T12:40:28.818Z,2.10
2022-08-28T12:43:05.339Z,2.58
2022-08-28T12:45:39.639Z,2.03
2022-08-28T12:48:29.251Z,2.40
2022-08-28T12:51:09.055Z,2.25
2022-08-28T12:53:43.501Z,2.33
2022-08-28T12:56:11.901Z,2.10
2022-08-28T12:58:40.440Z,1.85
2022-08-28T13:01:10.115Z,2.38
2022-08-28T13:03:53.302Z,2.08
2022-08-28T13:06:32.639Z,2.30
2022-08-28T13:09:14.287Z,2.53
2022-08-28T13:11:50.753Z,2.95
2022-08-28T13:14:41.816Z,2.42
2022-08-28T13:17:09.373Z,5.90
2022-08-28T13:19:37.771Z,2.10
2022-08-28T13:22:29.192Z,3.35
2022-08-28T13:25:01.607Z,1.92
2022-08-28T13:27:29.158Z,3.47
2022-08-28T13:30:08.257Z,2.10
2022-08-28T13:32:39.237Z,2.10
2022-08-28T13:35:16.574Z,2.22
2022-08-28T13:37:50.260Z,2.15
2022-08-28T13:40:53.223Z,2.00
2022-08-28T13:43:10.187Z,2.10
2022-08-28T13:45:44.198Z,1.90
2022-08-28T13:48:37.463Z,2.17
2022-08-28T13:51:11.243Z,2.00
2022-08-28T13:53:39.793Z,1.55
2022-08-28T13:56:06.691Z,2.05
2022-08-28T13:58:33.272Z,2.08
2022-08-28T14:01:00.942Z,1.83
2022-08-28T14:03:37.969Z,2.00
2022-08-28T14:06:14.075Z,1.98
2022-08-28T14:08:43.205Z,2.03
2022-08-28T14:11:12.656Z,2.15
2022-08-28T14:16:07.823Z,2.13
2022-08-28T14:18:35.229Z,1.80
2022-08-28T14:21:05.145Z,1.98
2022-08-28T14:23:33.703Z,2.13
2022-08-28T14:26:00.197Z,1.98
2022-08-28T14:28:26.939Z,1.85
2022-08-28T14:30:53.447Z,1.70
2022-08-28T14:33:20.723Z,1.70
2022-08-28T14:35:48.757Z,2.00
2022-08-28T14:38:16.310Z,1.83
2022-08-28T14:40:44.055Z,1.77
2022-08-28T14:43:12.406Z,2.30
2022-08-28T14:45:43.342Z,2.20
2022-08-28T14:48:10.368Z,2.03
2022-08-28T14:50:42.423Z,1.80
2022-08-28T14:53:09.672Z,1.98
2022-08-28T14:55:54.279Z,1.88
2022-08-28T14:58:21.068Z,2.00
2022-08-28T15:00:50.049Z,2.15
2022-08-28T15:03:18.536Z,2.20
2022-08-28T15:05:46.058Z,1.83
2022-08-28T15:08:16.595Z,2.15
2022-08-28T15:10:44.031Z,1.90
2022-08-28T15:13:11.345Z,1.90
2022-08-28T15:15:41.183Z,1.83
2022-08-28T15:20:42.174Z,1.90
2022-08-28T15:23:10.274Z,1.98
2022-08-28T15:25:37.248Z,1.95
2022-08-28T15:28:04.794Z,2.10
2022-08-28T15:30:31.962Z,1.95
2022-08-28T15:33:01.206Z,2.20
2022-08-28T15:35:28.271Z,2.00
2022-08-28T15:37:54.777Z,2.03
2022-08-28T15:40:40.043Z,1.95
2022-08-28T15:43:06.775Z,2.03
2022-08-28T15:45:37.469Z,2.10
2022-08-28T15:48:04.276Z,2.10
2022-08-28T15:50:30.934Z,2.30
2022-08-28T15:52:57.717Z,1.85
2022-08-28T15:55:27.241Z,2.20
2022-08-28T15:57:55.021Z,1.80
2022-08-28T16:00:22.488Z,2.00
2022-08-28T16:02:49.103Z,2.10
2022-08-28T16:05:16.211Z,1.98
2022-08-28T16:07:42.945Z,2.58
2022-08-28T16:10:13.316Z,1.83
2022-08-28T16:12:40.819Z,2.30
2022-08-28T16:15:08.797Z,1.77
2022-08-28T16:17:36.601Z,2.47
2022-08-28T16:20:06.570Z,2.08
2022-08-28T16:22:39.367Z,1.90
2022-08-28T16:25:06.686Z,2.03
2022-08-28T16:27:33.671Z,2.20
2022-08-28T16:30:00.892Z,2.10
2022-08-28T16:32:27.714Z,2.13
2022-08-28T16:34:54.490Z,2.00
2022-08-28T16:37:21.532Z,1.90
2022-08-28T16:39:53.772Z,2.10
2022-08-28T16:42:20.683Z,1.98
2022-08-28T16:44:47.250Z,2.25
2022-08-28T16:47:14.480Z,1.77
2022-08-28T16:49:40.951Z,2.05
2022-08-28T16:52:07.605Z,2.22
2022-08-28T16:54:34.301Z,2.20
2022-08-28T16:57:01.935Z,2.60
2022-08-28T16:59:28.767Z,2.38
2022-08-28T17:01:55.798Z,1.83
2022-08-28T17:04:22.654Z,1.90
2022-08-28T17:06:49.380Z,1.85
2022-08-28T17:09:15.836Z,2.00
2022-08-28T17:11:42.352Z,2.47
2022-08-28T17:14:10.978Z,2.28
2022-08-28T17:16:38.441Z,2.17
2022-08-28T17:19:04.980Z,2.22
2022-08-28T17:21:50.881Z,2.22
2022-08-28T17:24:17.840Z,1.80
2022-08-28T17:26:44.819Z,2.25
2022-08-28T17:29:11.772Z,2.40
2022-08-28T17:31:38.732Z,1.70
2022-08-28T17:34:07.282Z,2.22
2022-08-28T17:36:36.929Z,2.03
2022-08-28T17:39:08.868Z,2.10
2022-08-28T17:41:35.867Z,2.22
2022-08-28T17:44:03.236Z,2.67
2022-08-28T17:46:33.991Z,2.33
2022-08-28T17:49:05.215Z,2.50
2022-08-28T17:51:42.753Z,2.58
2022-08-28T17:54:21.364Z,2.50
2022-08-28T17:56:48.452Z,2.70
2022-08-28T17:59:16.024Z,2.38
2022-08-28T18:01:45.087Z,2.55
2022-08-28T18:04:12.967Z,3.10
2022-08-28T18:06:40.159Z,2.65
2022-08-28T18:09:09.880Z,2.55
2022-08-28T18:11:37.386Z,2.53
2022-08-28T18:14:04.853Z,2.80
2022-08-28T18:16:33.383Z,2.90
2022-08-28T18:19:01.528Z,2.97
2022-08-28T18:21:29.139Z,2.58
2022-08-28T18:23:56.011Z,2.83
2022-08-28T18:26:23.457Z,2.50
2022-08-28T18:28:50.825Z,2.92
2022-08-28T18:31:18.412Z,3.15
2022-08-28T18:33:45.149Z,2.60
2022-08-28T18:36:13.828Z,2.60
2022-08-28T18:38:40.922Z,2.55
2022-08-28T18:41:09.401Z,2.55
2022-08-28T18:43:36.794Z,2.55
2022-08-28T18:46:05.322Z,2.78
2022-08-28T18:48:32.945Z,2.72
2022-08-28T18:50:59.682Z,2.92
2022-08-28T18:53:26.527Z,2.97
2022-08-28T18:55:54.951Z,2.92
2022-08-28T18:58:23.647Z,2.42
2022-08-28T19:00:51.020Z,2.88
2022-08-28T19:03:17.487Z,2.40
2022-08-28T19:05:44.333Z,2.80
2022-08-28T19:08:11.352Z,2.70
2022-08-28T19:10:38.588Z,2.88
2022-08-28T19:13:06.642Z,2.60
2022-08-28T19:15:35.809Z,2.92
2022-08-28T19:18:04.093Z,3.03
2022-08-28T19:20:31.840Z,2.80
2022-08-28T19:22:59.344Z,3.00
2022-08-28T19:25:29.201Z,3.05
2022-08-28T19:28:01.303Z,2.88
2022-08-28T19:30:31.295Z,2.28
2022-08-28T19:32:57.830Z,2.47
2022-08-28T19:35:25.230Z,2.55
2022-08-28T19:37:55.615Z,2.60
2022-08-28T19:40:23.153Z,2.70
2022-08-28T19:42:49.921Z,2.67
2022-08-28T19:45:17.875Z,3.00
2022-08-28T19:47:44.979Z,2.60
2022-08-28T19:50:13.819Z,2.70
2022-08-28T19:52:41.333Z,2.70
2022-08-28T19:55:08.373Z,2.38
2022-08-28T19:57:35.027Z,2.60
2022-08-28T20:00:02.438Z,2.72
2022-08-28T20:02:30.868Z,2.70
2022-08-28T20:04:57.429Z,2.83
2022-08-28T20:07:24.846Z,3.03
2022-08-28T20:09:52.332Z,2.75
2022-08-28T20:12:19.792Z,2.67
2022-08-28T20:14:46.688Z,3.17
2022-08-28T20:17:13.847Z,2.88
2022-08-28T20:19:40.446Z,2.75
2022-08-28T20:22:06.969Z,3.50
2022-08-28T20:24:37.292Z,2.72
2022-08-28T20:27:04.230Z,2.90
2022-08-28T20:29:31.258Z,2.97
2022-08-28T20:31:58.002Z,2.67
2022-08-28T20:34:24.578Z,3.05
2022-08-28T20:36:51.972Z,3.03
2022-08-28T20:39:20.342Z,3.28
2022-08-28T20:41:47.929Z,3.10
2022-08-28T20:44:16.102Z,3.15
2022-08-28T20:46:43.569Z,2.88
2022-08-28T20:49:11.535Z,3.17
2022-08-28T20:51:53.932Z,3.15
2022-08-28T20:54:27.023Z,3.13
2022-08-28T20:56:54.356Z,3.35
2022-08-28T20:59:21.706Z,3.03
2022-08-28T21:01:51.746Z,3.75
2022-08-28T21:06:49.015Z,3.38
2022-08-28T21:09:17.639Z,3.42
2022-08-28T21:11:44.719Z,3.03
2022-08-28T21:14:11.713Z,3.25
2022-08-28T21:16:40.062Z,2.72
2022-08-28T21:19:15.733Z,3.17
2022-08-28T21:21:44.179Z,2.72
2022-08-28T21:24:13.468Z,3.38
2022-08-28T21:26:43.252Z,3.38
2022-08-28T21:29:11.354Z,3.10
2022-08-28T21:31:41.146Z,2.72
2022-08-28T21:34:09.344Z,3.55
2022-08-28T21:36:38.706Z,2.65
2022-08-28T21:39:05.967Z,3.45
2022-08-28T21:41:33.165Z,3.20
2022-08-28T21:43:59.937Z,3.20
2022-08-28T21:46:27.745Z,2.53
2022-08-28T21:48:56.199Z,3.10
2022-08-28T21:51:25.118Z,3.33
2022-08-28T21:53:54.304Z,3.22
2022-08-28T21:56:23.890Z,3.92
2022-08-28T21:58:53.146Z,2.67
2022-08-28T22:01:21.250Z,2.75
2022-08-28T22:03:48.081Z,2.70
2022-08-28T22:06:18.371Z,2.58
2022-08-28T22:08:46.589Z,3.00
2022-08-28T22:11:15.708Z,2.90
2022-08-28T22:16:10.659Z,3.58
2022-08-28T22:18:37.789Z,2.40
2022-08-28T22:21:23.692Z,2.63
2022-08-28T22:23:51.033Z,3.05
2022-08-28T22:26:20.814Z,3.05
2022-08-28T22:28:47.922Z,3.45
2022-08-28T22:31:14.653Z,2.83
2022-08-28T22:33:42.827Z,2.78
2022-08-28T22:36:11.002Z,2.83
2022-08-28T22:38:39.253Z,2.40
2022-08-28T22:41:07.331Z,2.65
2022-08-28T22:43:34.984Z,2.95
2022-08-28T22:46:01.866Z,2.50
2022-08-28T22:48:28.376Z,2.88
2022-08-28T22:51:04.624Z,2.65
2022-08-28T22:53:31.874Z,2.80
2022-08-28T22:56:00.418Z,2.80
2022-08-28T22:58:32.837Z,2.70
2022-08-28T23:01:02.268Z,3.17
2022-08-28T23:03:29.038Z,2.60
2022-08-28T23:05:56.198Z,2.25
2022-08-28T23:08:22.970Z,2.45
2022-08-28T23:10:59.596Z,2.70
2022-08-28T23:13:27.434Z,2.45
2022-08-28T23:15:54.327Z,2.42
2022-08-28T23:18:21.054Z,2.70
2022-08-28T23:20:47.741Z,2.33
2022-08-28T23:23:17.300Z,2.90
2022-08-28T23:25:44.537Z,2.30
2022-08-28T23:28:11.664Z,2.40
2022-08-28T23:30:38.954Z,2.67
2022-08-28T23:33:08.496Z,2.40
2022-08-28T23:35:36.290Z,3.13
2022-08-28T23:38:04.842Z,2.22
2022-08-28T23:40:33.744Z,2.50
2022-08-28T23:43:01.001Z,2.60
2022-08-28T23:45:27.633Z,2.60
2022-08-28T23:47:55.244Z,2.58
2022-08-28T23:50:23.092Z,2.47
2022-08-28T23:52:50.428Z,2.53
2022-08-28T23:55:19.537Z,2.60
2022-08-28T23:57:46.205Z,2.40
